Terminal Aerodrome Forecast
Issued by NWS

Home | Current Version | Previous Version | Text Only | Print | Product List | Glossary On
Versions: 1 2 3 4 5 6 7 8 9 10 11 12 13 14 15 16 17 18 19 20 21
000
FTUS45 KBOU 172109 AAB
TAFAPA
TAF AMD
KAPA 172109Z 1721/1818 02008KT P6SM SCT100 SCT150 BKN220
     FM172300 30012KT P6SM SCT070 BKN100
     FM180200 04010G18KT P6SM VCSH SCT030 BKN070
     FM180900 06010KT 5SM BR VCSH OVC010
     FM181600 04008KT P6SM OVC015=

USA.gov is the U.S. government's official web portal to all federal, state and local government web resources and services.